Winston, Kentucky
Current Conditions -  °F | °C
As of 10:35 AM on Monday 22 Dec 2014 (Local Time) from KI39 Reporting Station
Overcast Overcast  
Wind Chill: 46°   Ceiling: 3600
Heat Index: 46°   Visibility: 10mi
Dew Point: 36°   Wind: 3mph
Humidity: 66%   Direction: 90°E
Pressure: 29.98"   Gusts: NA
Location:  37.71°N, 84.08°W
Report Text: KI39 221535Z AUTO 09003KT 10SM SCT028 OVC036 08/02 A2998 RMK AO2
Loading
Personal Weather Stations






























Interactive Weather Map New forecast layout! Learn more

10-Day Weather Forecast

Advertisements
Track Severe Weather on mobile